Time;durP1;ratioP1;P1;durP2;ratioP2;P2;SDS_P1;SDS_P2;PMS_P1;PMS_P2;Temp;Humidity;BMP_temperature;BMP_pressure;BME280_temperature;BME280_humidity;BME280_pressure;Samples;Min_cycle;Max_cycle;Signal;HPM_P1;HPM_P2
2023/12/08 00:00:10;;;;;;;6.75;4.82;;;;;;;12.01;50.68;96634.53;5080431;28;20028;-27
2023/12/08 00:02:35;;;;;;;6.72;4.20;;;;;;;11.88;50.58;96636.44;5072743;28;20469;-28
2023/12/08 00:05:01;;;;;;;6.35;3.95;;;;;;;11.97;50.89;96638.56;5080507;28;20392;-27
2023/12/08 00:07:26;;;;;;;5.72;3.63;;;;;;;11.87;51.19;96640.34;5078216;28;20016;-27
2023/12/08 00:09:52;;;;;;;11.30;4.57;;;;;;;12.01;50.28;96641.94;5082321;28;20020;-27
2023/12/08 00:12:17;;;;;;;6.07;4.53;;;;;;;11.99;50.75;96638.91;5079887;28;20031;-27
2023/12/08 00:14:43;;;;;;;6.20;4.18;;;;;;;11.84;51.09;96646.66;5086774;28;20022;-27
2023/12/08 00:17:08;;;;;;;5.07;3.95;;;;;;;11.99;50.83;96652.50;5080210;28;20442;-27
2023/12/08 00:19:34;;;;;;;6.22;4.40;;;;;;;11.82;51.35;96654.47;5072692;28;20020;-27
2023/12/08 00:21:59;;;;;;;8.52;5.18;;;;;;;11.94;51.01;96653.00;5080436;28;20428;-27
2023/12/08 00:24:25;;;;;;;8.13;5.47;;;;;;;11.98;51.23;96651.72;5080232;28;20112;-27
2023/12/08 00:26:50;;;;;;;9.10;6.55;;;;;;;12.01;50.94;96655.53;5080134;28;20382;-26
2023/12/08 00:29:19;;;;;;;8.38;5.85;;;;;;;12.03;50.78;96658.56;5079690;28;20016;-30
2023/12/08 00:31:45;;;;;;;8.00;5.35;;;;;;;12.16;50.39;96657.44;5080478;28;20025;-27
2023/12/08 00:34:11;;;;;;;7.10;4.88;;;;;;;12.21;49.99;96656.16;5083572;28;20102;-27
2023/12/08 00:36:36;;;;;;;7.03;4.97;;;;;;;12.16;50.17;96657.44;5086220;28;20628;-26
2023/12/08 00:39:02;;;;;;;7.57;4.47;;;;;;;12.13;49.88;96652.09;5086938;28;20063;-27
2023/12/08 00:41:28;;;;;;;5.50;4.13;;;;;;;12.20;49.99;96657.34;5078216;28;20087;-27
2023/12/08 00:43:53;;;;;;;6.40;3.88;;;;;;;12.04;50.12;96665.53;5090093;28;20111;-26
2023/12/08 00:46:19;;;;;;;4.72;3.58;;;;;;;12.13;49.60;96666.44;5083462;28;20030;-27
2023/12/08 00:48:44;;;;;;;4.80;3.50;;;;;;;12.22;49.08;96671.28;5083281;28;20494;-27
2023/12/08 00:51:13;;;;;;;4.22;3.10;;;;;;;12.20;49.55;96668.22;5076958;28;20028;-27
2023/12/08 00:53:42;;;;;;;3.55;3.08;;;;;;;12.15;49.29;96666.00;5083794;28;20095;-27
2023/12/08 00:56:08;;;;;;;3.55;2.83;;;;;;;12.02;49.43;96668.69;5087193;28;20023;-27
2023/12/08 00:58:34;;;;;;;5.00;2.60;;;;;;;12.04;48.89;96676.41;5079072;28;20066;-26
2023/12/08 01:00:59;;;;;;;3.50;2.55;;;;;;;12.06;49.24;96679.47;5082959;28;20034;-27
2023/12/08 01:03:25;;;;;;;3.78;2.83;;;;;;;11.95;49.09;96684.44;5083393;28;20104;-27
2023/12/08 01:05:51;;;;;;;4.43;2.75;;;;;;;12.07;48.79;96675.56;5083212;28;20493;-26
2023/12/08 01:08:16;;;;;;;5.05;3.17;;;;;;;12.06;48.77;96671.31;5079488;28;20077;-27
2023/12/08 01:10:42;;;;;;;4.60;2.67;;;;;;;11.95;48.81;96668.13;5079218;28;20082;-27
2023/12/08 01:13:07;;;;;;;6.03;2.45;;;;;;;12.13;48.37;96674.59;5083384;28;20020;-27
2023/12/08 01:15:33;;;;;;;5.43;2.60;;;;;;;11.87;49.43;96679.16;5080349;28;20484;-28
2023/12/08 01:17:58;;;;;;;3.47;2.63;;;;;;;11.81;49.30;96664.59;5084961;28;20047;-26
2023/12/08 01:20:24;;;;;;;4.25;2.65;;;;;;;11.82;48.99;96659.91;5075494;28;20024;-27
2023/12/08 01:22:49;;;;;;;4.25;2.70;;;;;;;11.75;49.80;96655.41;5064971;28;20027;-28
2023/12/08 01:25:15;;;;;;;3.67;2.78;;;;;;;11.83;49.31;96650.56;5082987;28;20024;-27
2023/12/08 01:27:40;;;;;;;5.45;3.22;;;;;;;11.50;50.03;96642.44;5075543;28;20493;-26
2023/12/08 01:30:06;;;;;;;4.57;3.00;;;;;;;11.45;50.37;96645.69;5082470;28;20025;-27
2023/12/08 01:32:32;;;;;;;6.32;2.92;;;;;;;11.76;49.86;96635.22;5082555;28;20098;-27
2023/12/08 01:34:57;;;;;;;5.35;3.10;;;;;;;11.92;49.50;96647.22;5082691;28;20381;-27
2023/12/08 01:37:22;;;;;;;4.95;2.72;;;;;;;11.77;49.64;96657.72;5082501;28;20466;-27
2023/12/08 01:39:48;;;;;;;4.22;3.08;;;;;;;11.71;49.48;96654.75;5086454;28;20081;-27
2023/12/08 01:42:13;;;;;;;5.10;3.20;;;;;;;11.78;49.63;96651.09;5085286;28;20024;-26
2023/12/08 01:44:39;;;;;;;3.97;2.75;;;;;;;11.74;49.26;96653.88;5082907;28;20024;-26
2023/12/08 01:47:06;;;;;;;4.32;3.25;;;;;;;11.73;49.31;96652.38;5080579;28;20012;-27
2023/12/08 01:49:33;;;;;;;4.55;3.47;;;;;;;11.78;49.36;96649.13;5083875;28;20566;-27
2023/12/08 01:51:58;;;;;;;3.88;3.28;;;;;;;11.77;49.17;96638.69;5085835;28;20531;-27
2023/12/08 01:54:24;;;;;;;3.60;2.92;;;;;;;11.79;49.36;96645.22;5085396;28;20020;-27
2023/12/08 01:56:50;;;;;;;3.35;2.80;;;;;;;11.79;49.09;96645.22;5076545;28;20032;-27
2023/12/08 01:59:16;;;;;;;3.92;3.00;;;;;;;11.83;48.77;96645.16;5080814;28;20062;-26
2023/12/08 02:01:42;;;;;;;3.83;3.00;;;;;;;11.79;48.92;96639.78;5089869;28;20051;-27
2023/12/08 02:04:07;;;;;;;4.65;3.03;;;;;;;11.96;48.78;96629.66;5077784;28;20031;-26
2023/12/08 02:06:35;;;;;;;4.10;2.85;;;;;;;11.86;48.32;96634.19;5078852;28;20028;-28
2023/12/08 02:09:00;;;;;;;4.00;2.58;;;;;;;11.79;48.71;96634.38;5081505;28;20492;-27
2023/12/08 02:11:26;;;;;;;4.43;3.15;;;;;;;11.59;48.87;96625.56;5081909;28;20020;-27
2023/12/08 02:13:53;;;;;;;6.70;3.80;;;;;;;11.70;48.81;96617.88;5081607;28;20066;-27
2023/12/08 02:16:31;;;;;;;7.60;4.28;;;;;;;11.74;48.70;96615.09;5085318;28;20254;-27
2023/12/08 02:18:57;;;;;;;7.93;4.18;;;;;;;11.91;48.44;96600.28;5077394;28;20016;-27
2023/12/08 02:21:23;;;;;;;9.95;5.35;;;;;;;11.70;48.80;96598.88;5081606;28;20020;-26
2023/12/08 02:23:54;;;;;;;10.55;5.63;;;;;;;11.80;48.77;96602.53;5081455;28;20111;-29
2023/12/08 02:26:20;;;;;;;10.48;5.50;;;;;;;11.71;49.00;96605.06;5075659;28;20035;-26
2023/12/08 02:28:46;;;;;;;9.55;5.90;;;;;;;11.86;48.40;96598.84;5079566;28;20130;-27
2023/12/08 02:31:16;;;;;;;10.88;5.65;;;;;;;11.90;48.56;96597.97;5081958;28;20035;-27
2023/12/08 02:33:45;;;;;;;9.23;4.95;;;;;;;11.70;48.42;96598.09;5077816;28;20024;-27
2023/12/08 02:36:16;;;;;;;6.53;4.15;;;;;;;11.74;48.38;96585.97;5084339;28;20373;-26
2023/12/08 02:38:42;;;;;;;5.75;3.20;;;;;;;11.57;48.57;96579.03;5089042;28;20038;-27
2023/12/08 02:41:08;;;;;;;8.60;3.08;;;;;;;11.63;48.60;96571.13;5063091;28;20035;-27
2023/12/08 02:43:34;;;;;;;6.32;3.20;;;;;;;11.80;47.84;96562.53;5074927;28;20021;-27
2023/12/08 02:45:59;;;;;;;8.93;3.95;;;;;;;11.68;48.27;96565.94;5087171;28;20031;-28
2023/12/08 02:48:25;;;;;;;8.95;4.18;;;;;;;11.52;48.64;96566.75;5081581;28;20028;-27
2023/12/08 02:50:51;;;;;;;9.75;4.75;;;;;;;11.71;48.61;96567.81;5083978;28;20026;-27
2023/12/08 02:53:17;;;;;;;11.07;5.47;;;;;;;11.77;48.31;96566.09;5078179;28;20013;-27
2023/12/08 02:55:42;;;;;;;14.95;6.90;;;;;;;11.69;48.62;96566.69;5088180;28;20016;-27
2023/12/08 02:58:07;;;;;;;9.15;3.97;;;;;;;11.52;47.66;96560.53;5080155;28;20052;-26
2023/12/08 03:00:33;;;;;;;6.07;3.42;;;;;;;11.20;47.16;96545.09;5080963;28;20017;-26
2023/12/08 03:02:58;;;;;;;4.75;3.25;;;;;;;11.46;46.63;96540.53;5083397;28;20103;-26
2023/12/08 03:05:24;;;;;;;8.80;4.10;;;;;;;11.49;47.17;96543.16;5084464;28;20016;-27
2023/12/08 03:07:49;;;;;;;5.47;3.63;;;;;;;11.39;47.66;96540.72;5082453;28;20082;-26
2023/12/08 03:10:15;;;;;;;7.93;4.07;;;;;;;11.35;48.40;96551.69;5083960;28;20024;-26
2023/12/08 03:12:41;;;;;;;5.80;3.55;;;;;;;11.64;48.41;96546.25;5084008;28;20553;-27
2023/12/08 03:15:07;;;;;;;5.72;4.03;;;;;;;11.64;48.31;96542.75;5075762;28;20024;-27
2023/12/08 03:17:33;;;;;;;5.13;3.38;;;;;;;11.51;48.23;96538.06;5079428;28;20429;-26
2023/12/08 03:20:00;;;;;;;4.97;3.30;;;;;;;11.29;48.21;96526.25;5088377;28;20035;-26
2023/12/08 03:22:26;;;;;;;4.30;3.13;;;;;;;11.32;47.93;96536.25;5080491;28;20084;-26
2023/12/08 03:24:52;;;;;;;4.10;2.78;;;;;;;11.22;48.98;96526.44;5087128;28;20032;-26
2023/12/08 03:27:17;;;;;;;3.50;2.35;;;;;;;11.38;48.57;96522.91;5081754;28;20028;-26
2023/12/08 03:29:42;;;;;;;4.13;2.53;;;;;;;11.35;49.09;96515.63;5085153;28;20070;-26
2023/12/08 03:32:08;;;;;;;4.15;2.72;;;;;;;11.41;48.92;96511.94;5083431;28;20518;-26
2023/12/08 03:34:34;;;;;;;5.00;2.85;;;;;;;11.29;49.51;96515.38;5076644;28;20375;-27
2023/12/08 03:37:00;;;;;;;4.07;2.60;;;;;;;11.39;48.78;96524.44;5060015;28;20377;-26
2023/12/08 03:39:25;;;;;;;3.80;2.20;;;;;;;11.18;49.63;96525.00;5080111;28;20024;-27
2023/12/08 03:41:51;;;;;;;3.05;2.05;;;;;;;11.41;49.12;96517.38;5080285;28;20020;-26
2023/12/08 03:44:16;;;;;;;4.18;3.17;;;;;;;11.38;48.76;96528.31;5080548;28;20028;-26
2023/12/08 03:46:42;;;;;;;4.40;2.85;;;;;;;11.45;48.61;96522.72;5080289;28;20021;-27
2023/12/08 03:49:08;;;;;;;4.07;2.67;;;;;;;11.50;48.66;96524.91;5078219;28;20397;-26
2023/12/08 03:51:33;;;;;;;4.60;2.72;;;;;;;11.64;48.42;96521.78;5075156;28;20019;-26
2023/12/08 03:53:59;;;;;;;5.93;2.90;;;;;;;11.70;47.56;96527.47;5083995;28;20020;-26
2023/12/08 03:56:24;;;;;;;3.90;2.83;;;;;;;11.69;47.46;96526.72;5076684;28;20062;-27
2023/12/08 03:58:50;;;;;;;3.05;2.53;;;;;;;11.69;47.26;96515.09;5081510;28;20386;-26
2023/12/08 04:01:17;;;;;;;3.47;2.17;;;;;;;11.70;46.46;96522.03;5079071;28;20090;-27
2023/12/08 04:03:42;;;;;;;2.67;1.88;;;;;;;11.60;46.58;96513.00;5079768;28;20016;-26
2023/12/08 04:06:08;;;;;;;3.35;1.95;;;;;;;11.55;46.96;96505.38;5082089;28;20458;-26
2023/12/08 04:08:33;;;;;;;3.65;1.88;;;;;;;11.60;46.60;96513.00;5090298;28;20072;-27
2023/12/08 04:10:59;;;;;;;2.53;1.92;;;;;;;11.72;46.29;96514.22;5086990;28;20078;-27
2023/12/08 04:13:24;;;;;;;3.95;2.40;;;;;;;11.76;46.09;96510.22;5087558;28;20091;-28
2023/12/08 04:15:50;;;;;;;4.82;2.70;;;;;;;11.56;46.16;96506.13;5087126;28;20024;-27
2023/12/08 04:18:15;;;;;;;6.55;3.50;;;;;;;11.43;46.52;96511.53;5086631;28;20021;-27
2023/12/08 04:20:41;;;;;;;6.10;3.80;;;;;;;11.62;46.00;96502.44;5070769;28;20032;-27
2023/12/08 04:23:06;;;;;;;8.85;5.20;;;;;;;11.61;46.37;96508.34;5084360;28;20056;-26
2023/12/08 04:25:32;;;;;;;8.02;3.80;;;;;;;11.61;46.20;96502.91;5091158;28;20051;-27
2023/12/08 04:27:57;;;;;;;5.93;3.63;;;;;;;11.62;45.32;96510.59;5083842;28;20358;-26
2023/12/08 04:30:23;;;;;;;6.38;3.92;;;;;;;11.48;45.86;96505.56;5090934;28;20029;-27
2023/12/08 04:32:48;;;;;;;10.63;5.40;;;;;;;11.39;46.43;96497.28;5084157;28;20024;-26
2023/12/08 04:35:14;;;;;;;10.15;4.88;;;;;;;11.60;45.85;96485.84;5091063;28;20020;-27
2023/12/08 04:37:39;;;;;;;8.02;3.88;;;;;;;11.59;46.09;96484.31;5086429;28;20016;-26
2023/12/08 04:40:05;;;;;;;4.10;2.55;;;;;;;11.64;45.41;96466.69;5087387;28;20061;-27
2023/12/08 04:42:31;;;;;;;4.55;2.50;;;;;;;11.56;45.56;96470.81;5077344;28;20462;-26
2023/12/08 04:44:56;;;;;;;4.07;2.28;;;;;;;11.54;45.29;96457.66;5083618;28;20016;-26
2023/12/08 04:47:22;;;;;;;2.85;2.00;;;;;;;11.63;44.73;96452.34;5083652;28;20021;-26
2023/12/08 04:49:47;;;;;;;3.78;2.67;;;;;;;11.53;44.93;96446.03;5085963;28;20094;-27
2023/12/08 04:52:13;;;;;;;4.15;2.35;;;;;;;11.49;45.51;96442.69;5080988;28;20385;-27
2023/12/08 04:54:38;;;;;;;2.58;1.77;;;;;;;11.52;45.19;96451.91;5083877;28;20013;-27
2023/12/08 04:57:04;;;;;;;3.53;2.10;;;;;;;11.44;45.40;96448.63;5079855;28;20027;-26
2023/12/08 04:59:29;;;;;;;3.08;1.88;;;;;;;11.63;45.09;96446.94;5086808;28;20107;-27
2023/12/08 05:01:55;;;;;;;3.80;2.38;;;;;;;11.44;45.25;96456.03;5083479;28;20051;-27
2023/12/08 05:04:21;;;;;;;4.40;2.60;;;;;;;11.55;45.26;96456.47;5083313;28;20012;-27
2023/12/08 05:06:47;;;;;;;3.40;2.47;;;;;;;11.52;45.52;96451.91;5090359;28;20032;-26
2023/12/08 05:09:12;;;;;;;3.70;2.53;;;;;;;11.46;45.50;96453.66;5078975;28;20049;-26
2023/12/08 05:11:38;;;;;;;5.05;2.95;;;;;;;11.40;46.07;96442.53;5080078;28;20028;-27
2023/12/08 05:14:03;;;;;;;4.88;2.60;;;;;;;11.25;46.14;96441.41;5084151;28;20021;-27
2023/12/08 05:16:29;;;;;;;3.67;2.65;;;;;;;11.24;46.31;96447.28;5086332;28;20437;-27
2023/12/08 05:18:55;;;;;;;4.93;2.78;;;;;;;11.13;46.55;96445.59;5084376;28;20650;-27
2023/12/08 05:21:20;;;;;;;5.10;3.05;;;;;;;11.44;45.84;96447.88;5085167;28;20028;-26
2023/12/08 05:23:46;;;;;;;4.55;2.63;;;;;;;11.46;46.15;96459.84;5085674;28;20032;-26
2023/12/08 05:26:11;;;;;;;3.97;2.42;;;;;;;11.50;46.12;96451.56;5084908;28;20024;-28
2023/12/08 05:28:37;;;;;;;3.35;2.15;;;;;;;11.52;45.96;96447.22;5086249;28;20024;-27
2023/12/08 05:31:04;;;;;;;4.28;2.20;;;;;;;11.51;45.90;96450.38;5079205;28;20020;-27
2023/12/08 05:33:29;;;;;;;3.85;2.22;;;;;;;11.43;46.27;96454.50;5085115;28;20024;-27
2023/12/08 05:35:55;;;;;;;6.75;3.10;;;;;;;11.53;46.16;96453.44;5087890;28;20016;-26
2023/12/08 05:38:21;;;;;;;5.90;3.28;;;;;;;11.49;46.51;96453.56;5090006;28;20103;-26
2023/12/08 05:40:46;;;;;;;5.28;2.92;;;;;;;11.30;46.73;96465.31;5075211;28;20824;-26
2023/12/08 05:43:12;;;;;;;5.13;2.65;;;;;;;11.35;46.81;96453.19;5089241;28;20030;-27
2023/12/08 05:45:37;;;;;;;6.80;3.47;;;;;;;11.41;46.76;96451.44;5082999;28;20027;-27
2023/12/08 05:48:03;;;;;;;4.38;2.80;;;;;;;11.29;46.95;96452.94;5075486;28;20055;-27
2023/12/08 05:50:28;;;;;;;4.32;2.30;;;;;;;11.38;46.81;96455.78;5089607;28;20073;-29
2023/12/08 05:52:54;;;;;;;5.63;3.30;;;;;;;11.49;46.20;96453.56;5085369;28;20015;-27
2023/12/08 05:55:19;;;;;;;3.72;2.13;;;;;;;11.36;46.29;96454.72;5085271;28;20024;-27
2023/12/08 05:57:45;;;;;;;2.70;2.28;;;;;;;11.38;46.15;96449.59;5083123;28;20024;-26
2023/12/08 06:00:11;;;;;;;3.72;2.33;;;;;;;11.28;46.16;96458.78;5082698;28;20094;-27
2023/12/08 06:02:36;;;;;;;5.88;3.22;;;;;;;11.39;46.02;96459.25;5081908;28;20019;-27
2023/12/08 06:05:02;;;;;;;6.07;3.17;;;;;;;11.37;46.03;96454.28;5082832;28;20470;-27
2023/12/08 06:07:27;;;;;;;5.32;3.15;;;;;;;11.37;46.20;96461.66;5080202;28;20138;-26
2023/12/08 06:09:53;;;;;;;5.45;2.88;;;;;;;11.30;45.92;96467.28;5075980;28;20031;-27
2023/12/08 06:12:18;;;;;;;9.20;4.10;;;;;;;11.24;46.32;96469.78;5082225;28;20165;-26
2023/12/08 06:14:44;;;;;;;8.05;4.32;;;;;;;11.27;46.24;96465.41;5056644;28;20032;-26
2023/12/08 06:17:09;;;;;;;7.65;3.67;;;;;;;11.33;46.32;96452.84;5083163;28;20035;-26
2023/12/08 06:19:34;;;;;;;6.40;4.03;;;;;;;11.29;46.02;96460.31;5080539;28;20469;-27
2023/12/08 06:22:00;;;;;;;6.00;4.00;;;;;;;11.14;46.50;96465.38;5081403;28;20351;-26
2023/12/08 06:24:25;;;;;;;6.18;3.40;;;;;;;11.25;45.70;96454.97;5063414;28;20432;-26
2023/12/08 06:26:51;;;;;;;4.85;2.85;;;;;;;11.24;45.76;96469.00;5081569;28;20020;-26
2023/12/08 06:29:17;;;;;;;8.77;3.88;;;;;;;11.22;45.74;96460.53;5080354;28;20036;-26
2023/12/08 06:31:46;;;;;;;5.10;3.22;;;;;;;11.09;45.82;96461.25;5081431;28;20040;-26
2023/12/08 06:34:11;;;;;;;5.15;2.85;;;;;;;11.16;45.79;96474.59;5081245;28;20027;-26
2023/12/08 06:36:45;;;;;;;4.05;2.65;;;;;;;11.29;45.24;96465.75;5076880;28;20020;-26
2023/12/08 06:39:11;;;;;;;;;;;;;;;11.18;45.38;96465.28;5085305;28;20074;-27
2023/12/08 06:41:36;;;;;;;4.28;2.50;;;;;;;11.28;45.39;96464.22;5081555;28;20253;-26
2023/12/08 06:44:02;;;;;;;4.65;2.72;;;;;;;11.26;45.32;96456.50;5063104;28;20023;-26
2023/12/08 06:46:27;;;;;;;4.32;2.38;;;;;;;11.32;44.99;96449.38;5063002;28;20036;-28
2023/12/08 06:48:53;;;;;;;3.75;2.55;;;;;;;11.41;44.89;96452.22;5088867;28;20097;-27
2023/12/08 06:51:18;;;;;;;11.63;5.93;;;;;;;11.12;45.13;96452.25;5081314;28;20523;-27
2023/12/08 06:53:44;;;;;;;13.73;5.70;;;;;;;11.33;45.07;96455.56;5081702;28;20452;-27
2023/12/08 06:56:09;;;;;;;11.35;5.40;;;;;;;11.29;45.15;96449.47;5085611;28;20064;-27
2023/12/08 06:58:35;;;;;;;8.15;4.80;;;;;;;11.30;44.93;96446.31;5084161;28;20019;-26
2023/12/08 07:01:01;;;;;;;12.43;6.88;;;;;;;11.21;45.01;96454.34;5065421;28;20043;-27
2023/12/08 07:03:26;;;;;;;9.07;6.03;;;;;;;11.32;45.38;96454.03;5078161;28;20031;-26
2023/12/08 07:05:51;;;;;;;11.05;6.72;;;;;;;11.25;45.19;96454.25;5081163;28;20425;-26
2023/12/08 07:08:17;;;;;;;17.45;8.57;;;;;;;11.28;45.04;96443.25;5081275;28;20020;-27
2023/12/08 07:10:42;;;;;;;23.45;11.50;;;;;;;11.47;44.96;96444.31;5080607;28;20488;-26
2023/12/08 07:13:08;;;;;;;50.88;23.15;;;;;;;11.50;44.95;96449.63;5082804;28;20846;-27
2023/12/08 07:15:33;;;;;;;149.95;68.00;;;;;;;11.28;45.36;96445.22;5078903;28;20046;-28
2023/12/08 07:17:59;;;;;;;235.85;97.65;;;;;;;11.32;45.52;96448.59;5080409;28;20082;-26
2023/12/08 07:20:24;;;;;;;257.13;100.00;;;;;;;11.36;45.34;96449.28;5076596;28;20016;-27
2023/12/08 07:22:56;;;;;;;152.73;60.45;;;;;;;11.28;44.92;96443.25;5084277;28;20086;-26
2023/12/08 07:25:22;;;;;;;73.60;30.50;;;;;;;11.35;44.78;96447.75;5083162;28;20071;-26
2023/12/08 07:27:47;;;;;;;39.60;20.45;;;;;;;11.31;45.29;96447.84;5084036;28;20465;-26
2023/12/08 07:30:13;;;;;;;19.13;9.68;;;;;;;11.18;45.43;96452.47;5075140;28;20036;-26
2023/12/08 07:32:38;;;;;;;10.57;5.68;;;;;;;11.36;44.50;96449.28;5079852;28;20020;-28
2023/12/08 07:35:04;;;;;;;8.75;4.07;;;;;;;11.39;44.83;96459.25;5080672;28;20089;-27
2023/12/08 07:37:30;;;;;;;5.97;3.47;;;;;;;11.31;45.48;96460.66;5081081;28;20032;-28
2023/12/08 07:39:55;;;;;;;8.73;3.83;;;;;;;11.48;45.01;96459.41;5080087;28;20035;-27
2023/12/08 07:42:21;;;;;;;5.57;3.42;;;;;;;11.49;44.93;96460.94;5079884;28;20024;-28
2023/12/08 07:44:46;;;;;;;7.03;4.35;;;;;;;11.46;44.92;96464.50;5083502;28;20055;-27
2023/12/08 07:47:12;;;;;;;7.35;5.10;;;;;;;11.36;45.44;96468.28;5083718;28;20016;-26
2023/12/08 07:49:37;;;;;;;7.93;4.85;;;;;;;11.49;45.35;96452.78;5082144;28;20037;-26
2023/12/08 07:52:03;;;;;;;10.00;5.47;;;;;;;11.48;44.95;96468.31;5086959;28;20462;-26
2023/12/08 07:54:32;;;;;;;10.02;6.05;;;;;;;11.38;44.66;96469.34;5073356;28;20040;-26
2023/12/08 07:56:58;;;;;;;17.08;9.60;;;;;;;11.49;44.74;96471.81;5087474;28;20039;-28
2023/12/08 07:59:24;;;;;;;38.38;23.40;;;;;;;11.62;44.65;96461.69;5079264;28;20415;-27
2023/12/08 08:01:50;;;;;;;30.48;19.08;;;;;;;11.49;45.30;96467.13;5074968;28;20039;-27
2023/12/08 08:04:16;;;;;;;19.40;13.23;;;;;;;11.47;45.13;96468.75;5086082;28;20099;-28
2023/12/08 08:06:41;;;;;;;28.15;17.73;;;;;;;11.50;45.06;96476.00;5087369;28;20081;-26
2023/12/08 08:09:07;;;;;;;39.90;26.00;;;;;;;11.46;45.25;96461.78;5080286;28;20051;-27
2023/12/08 08:11:33;;;;;;;30.80;23.02;;;;;;;11.64;44.87;96464.75;5073249;28;20112;-26
2023/12/08 08:13:58;;;;;;;29.23;22.05;;;;;;;11.56;45.09;96471.59;5087725;28;20024;-27
2023/12/08 08:16:23;;;;;;;27.95;19.13;;;;;;;11.50;45.50;96465.16;5079902;28;20016;-27
2023/12/08 08:18:49;;;;;;;29.65;16.40;;;;;;;11.50;45.38;96476.00;5080128;28;20020;-28
2023/12/08 08:21:15;;;;;;;23.17;12.55;;;;;;;11.67;45.03;96469.31;5081854;28;20385;-27
2023/12/08 08:23:41;;;;;;;18.15;9.35;;;;;;;11.57;44.95;96472.34;5078373;28;20474;-27
2023/12/08 08:26:06;;;;;;;14.88;8.00;;;;;;;11.63;45.10;96471.38;5080378;28;20016;-27
2023/12/08 08:28:32;;;;;;;10.20;6.28;;;;;;;11.58;45.23;96457.56;5058063;28;20026;-27
2023/12/08 08:30:57;;;;;;;14.48;7.75;;;;;;;11.61;45.23;96454.00;5082878;28;20444;-27
2023/12/08 08:33:23;;;;;;;11.30;7.50;;;;;;;11.62;45.57;96450.84;5074603;28;20021;-28
2023/12/08 08:35:48;;;;;;;11.65;8.23;;;;;;;11.57;45.52;96440.53;5082919;28;20078;-27
2023/12/08 08:38:14;;;;;;;10.48;7.15;;;;;;;11.76;45.17;96445.03;5075462;28;20385;-26
2023/12/08 08:40:39;;;;;;;11.65;7.38;;;;;;;11.53;45.53;96448.75;5082899;28;20023;-26
2023/12/08 08:43:05;;;;;;;13.90;8.30;;;;;;;11.68;45.26;96451.06;5077573;28;20024;-26
2023/12/08 08:45:30;;;;;;;13.05;8.15;;;;;;;11.76;45.30;96449.69;5080766;28;20103;-26
2023/12/08 08:47:56;;;;;;;13.27;8.27;;;;;;;11.86;44.90;96456.78;5079437;28;20462;-27
2023/12/08 08:50:22;;;;;;;9.90;5.60;;;;;;;11.71;45.11;96452.94;5079584;28;20486;-26
2023/12/08 08:52:47;;;;;;;9.20;6.25;;;;;;;11.87;44.87;96442.75;5082311;28;20046;-27
2023/12/08 08:55:13;;;;;;;8.00;5.55;;;;;;;11.98;44.72;96447.88;5086597;28;20512;-27
2023/12/08 08:57:38;;;;;;;8.23;4.75;;;;;;;12.04;44.80;96448.09;5085565;28;20036;-27
2023/12/08 09:00:05;;;;;;;13.18;8.02;;;;;;;11.87;44.75;96450.91;5086783;28;20012;-27
2023/12/08 09:02:30;;;;;;;14.63;7.60;;;;;;;11.78;45.44;96447.31;5087279;28;20462;-27
2023/12/08 09:04:56;;;;;;;14.93;8.02;;;;;;;12.26;44.52;96440.03;5084866;28;20035;-26
2023/12/08 09:07:21;;;;;;;18.50;9.82;;;;;;;12.61;43.78;96435.41;5088944;28;20017;-26
2023/12/08 09:09:46;;;;;;;13.88;7.80;;;;;;;12.28;44.31;96434.91;5057677;28;20052;-27
2023/12/08 09:12:12;;;;;;;11.90;5.70;;;;;;;12.77;43.07;96441.44;5090766;28;20028;-27
2023/12/08 09:14:38;;;;;;;7.78;4.90;;;;;;;12.52;43.75;96436.06;5083893;28;20107;-27
2023/12/08 09:17:05;;;;;;;7.57;4.45;;;;;;;13.10;42.52;96433.72;5076611;28;20033;-27
2023/12/08 09:19:31;;;;;;;22.92;11.82;;;;;;;12.68;43.13;96432.44;5086120;28;20431;-27
2023/12/08 09:21:57;;;;;;;31.25;17.23;;;;;;;12.74;43.56;96439.59;5085425;28;20076;-27
2023/12/08 09:24:25;;;;;;;39.22;23.45;;;;;;;14.85;39.14;96433.28;5082568;28;20021;-26
2023/12/08 09:26:50;;;;;;;33.58;19.90;;;;;;;13.68;41.11;96433.22;5081157;28;20444;-27
2023/12/08 09:29:15;;;;;;;30.73;16.20;;;;;;;13.15;42.13;96419.56;5077306;28;20048;-26
2023/12/08 09:31:41;;;;;;;30.17;15.68;;;;;;;13.90;40.49;96428.47;5082001;28;20028;-27
2023/12/08 09:34:06;;;;;;;25.15;14.43;;;;;;;13.67;41.19;96428.97;5082238;28;20016;-26
2023/12/08 09:36:33;;;;;;;29.13;15.75;;;;;;;13.39;41.89;96425.31;5082476;28;20043;-27
2023/12/08 09:38:58;;;;;;;28.75;14.38;;;;;;;12.93;42.63;96416.03;5080431;28;20024;-26
2023/12/08 09:41:26;;;;;;;22.60;11.63;;;;;;;12.87;43.34;96406.91;5083966;28;20024;-28
2023/12/08 09:43:59;;;;;;;20.13;9.68;;;;;;;12.57;43.69;96413.75;5082319;28;20048;-26
2023/12/08 09:46:25;;;;;;;12.88;7.13;;;;;;;12.50;43.63;96405.81;5082722;28;20020;-26
2023/12/08 09:48:54;;;;;;;7.68;5.30;;;;;;;12.48;43.79;96395.41;5078179;28;20032;-27
2023/12/08 09:51:20;;;;;;;7.75;4.95;;;;;;;12.31;44.52;96394.03;5078475;28;20035;-26
2023/12/08 09:53:47;;;;;;;6.78;4.05;;;;;;;12.14;44.37;96387.19;5089559;28;20024;-26
2023/12/08 09:56:13;;;;;;;6.90;3.88;;;;;;;12.30;43.96;96378.13;5082629;28;20394;-26
2023/12/08 09:58:40;;;;;;;7.78;4.05;;;;;;;12.18;44.71;96371.53;5089510;28;20470;-26
2023/12/08 10:01:08;;;;;;;5.60;3.60;;;;;;;12.08;44.76;96361.75;5082390;28;20032;-26
2023/12/08 10:03:34;;;;;;;4.85;3.40;;;;;;;12.26;44.76;96361.16;5082447;28;20021;-26
2023/12/08 10:05:59;;;;;;;5.93;3.90;;;;;;;12.22;44.99;96353.16;5083904;28;20032;-26
2023/12/08 10:08:25;;;;;;;6.78;4.70;;;;;;;12.20;44.33;96348.16;5079962;28;20040;-26
2023/12/08 10:10:50;;;;;;;8.00;5.20;;;;;;;11.98;45.10;96341.13;5081729;28;20030;-26
2023/12/08 10:13:16;;;;;;;8.15;4.43;;;;;;;12.15;45.11;96337.81;5082013;28;20044;-27
2023/12/08 10:15:44;;;;;;;7.88;4.68;;;;;;;12.24;44.95;96337.13;5081301;28;20024;-26
2023/12/08 10:18:25;;;;;;;7.43;4.65;;;;;;;12.11;44.90;96331.75;5084165;28;20079;-26
2023/12/08 10:21:11;;;;;;;5.18;3.65;;;;;;;12.00;45.49;96325.13;5077935;28;20086;-26
2023/12/08 10:23:37;;;;;;;6.30;3.55;;;;;;;12.03;45.13;96322.28;5081543;28;20433;-26
2023/12/08 10:26:03;;;;;;;6.50;4.80;;;;;;;11.87;45.47;96315.03;5081798;28;20064;-26
2023/12/08 10:28:33;;;;;;;6.90;4.97;;;;;;;12.04;44.98;96318.38;5084363;28;20032;-26
2023/12/08 10:30:59;;;;;;;6.88;4.88;;;;;;;12.11;45.19;96310.00;5078203;28;20029;-26
2023/12/08 10:33:25;;;;;;;5.72;3.97;;;;;;;12.06;45.37;96307.81;5081985;28;20484;-26
2023/12/08 10:35:51;;;;;;;7.20;5.28;;;;;;;12.15;45.00;96312.59;5081401;28;20036;-26
2023/12/08 10:38:18;;;;;;;7.35;5.30;;;;;;;11.95;45.20;96306.66;5074280;28;20032;-26
2023/12/08 10:40:47;;;;;;;7.93;5.47;;;;;;;12.13;44.73;96299.44;5081271;28;20047;-26
2023/12/08 10:43:23;;;;;;;8.95;7.13;;;;;;;12.01;45.19;96291.31;5081300;28;20031;-26
2023/12/08 10:45:52;;;;;;;6.15;5.00;;;;;;;12.06;45.06;96283.38;5080862;28;20013;-26
2023/12/08 10:48:21;;;;;;;10.93;6.78;;;;;;;12.17;45.12;96272.13;5073846;28;20020;-26
2023/12/08 10:50:48;;;;;;;11.95;7.55;;;;;;;11.96;45.25;96264.69;5076563;28;20076;-26
2023/12/08 10:53:18;;;;;;;8.07;5.63;;;;;;;12.15;44.68;96266.38;5079075;28;20021;-28
2023/12/08 10:55:50;;;;;;;8.48;6.38;;;;;;;12.09;45.40;96260.75;5081417;28;20394;-26
2023/12/08 10:58:19;;;;;;;8.20;5.57;;;;;;;12.16;45.10;96259.72;5073955;28;20020;-26
2023/12/08 11:00:46;;;;;;;9.70;5.75;;;;;;;12.14;45.37;96262.88;5080902;28;20269;-26
2023/12/08 11:03:12;;;;;;;7.43;5.97;;;;;;;12.12;45.07;96259.09;5080485;28;20025;-26
2023/12/08 11:05:47;;;;;;;5.80;4.80;;;;;;;12.13;45.08;96247.00;5080779;28;20020;-26
2023/12/08 11:08:17;;;;;;;5.70;4.43;;;;;;;12.14;44.94;96253.97;5084305;28;20485;-26
2023/12/08 11:10:46;;;;;;;5.32;3.80;;;;;;;12.01;44.98;96243.13;5084325;28;20059;-26
2023/12/08 11:13:27;;;;;;;5.00;3.50;;;;;;;12.09;45.20;96243.69;5080919;28;20481;-26
2023/12/08 11:16:05;;;;;;;6.68;4.15;;;;;;;12.19;44.82;96237.13;5079871;28;20020;-26
2023/12/08 11:18:35;;;;;;;7.20;3.65;;;;;;;12.14;45.25;96240.38;5081093;28;20051;-26
2023/12/08 11:21:08;;;;;;;6.65;4.07;;;;;;;12.15;45.22;96236.47;5081091;28;20052;-26
2023/12/08 11:23:38;;;;;;;6.90;4.03;;;;;;;12.26;45.37;96220.53;5077894;28;20012;-26
2023/12/08 11:26:35;;;;;;;8.23;4.40;;;;;;;12.18;45.21;96224.72;5075947;28;20017;-26